Terminal Aerodrome Forecast
Issued by NWS

Home | Current Version | Previous Version | Text Only | Print | Product List | Glossary On
Versions: 1 2 3 4 5 6 7 8 9 10 11 12 13 14 15 16
712
FTUS46 KSEW 251122
TAFBFI
TAF
KBFI 251122Z 2512/2612 16008KT P6SM BKN020 OVC045
      TEMPO 2512/2516 SCT020 BKN045
     FM251600 16008KT P6SM SCT020 BKN045
      TEMPO 2516/2518 BKN020 BKN045
     FM251800 17008KT P6SM BKN045 BKN120
     FM260100 18012KT P6SM -RA OVC045
     FM260600 16012KT P6SM -RA OVC035
     FM261000 18010KT P6SM -SHRA OVC030=

USA.gov is the U.S. government's official web portal to all federal, state and local government web resources and services.